createdAt,value
2022-11-24T00:00:19.270Z,83.76
2022-11-24T00:01:18.211Z,83.71
2022-11-24T00:02:18.341Z,83.73
2022-11-24T00:03:18.302Z,83.70
2022-11-24T00:04:17.785Z,83.60
2022-11-24T00:05:18.449Z,83.53
2022-11-24T00:06:17.614Z,83.55
2022-11-24T00:07:18.229Z,83.47
2022-11-24T00:08:17.810Z,83.36
2022-11-24T00:09:17.818Z,83.34
2022-11-24T00:10:18.274Z,83.37
2022-11-24T00:11:17.791Z,83.43
2022-11-24T00:12:18.504Z,83.37
2022-11-24T00:13:18.166Z,83.31
2022-11-24T00:14:17.650Z,83.34
2022-11-24T00:15:18.740Z,83.33
2022-11-24T00:16:18.246Z,83.32
2022-11-24T00:17:17.846Z,83.34
2022-11-24T00:18:18.416Z,83.31
2022-11-24T00:19:23.298Z,83.12
2022-11-24T00:20:18.417Z,83.12
2022-11-24T00:21:17.842Z,83.16
2022-11-24T00:22:17.954Z,83.21
2022-11-24T00:23:18.282Z,83.29
2022-11-24T00:24:17.774Z,83.26
2022-11-24T00:25:18.499Z,83.31
2022-11-24T00:26:17.854Z,83.35
2022-11-24T00:27:18.393Z,83.34
2022-11-24T00:29:18.233Z,83.19
2022-11-24T00:30:17.970Z,83.16
2022-11-24T00:31:23.826Z,83.07
2022-11-24T00:32:18.088Z,83.07
2022-11-24T00:33:17.569Z,83.11
2022-11-24T00:34:17.710Z,83.11
2022-11-24T00:35:18.304Z,82.93
2022-11-24T00:36:17.924Z,82.95
2022-11-24T00:37:18.128Z,83.13
2022-11-24T00:38:17.231Z,83.14
2022-11-24T00:39:17.720Z,83.17
2022-11-24T00:40:18.443Z,83.21
2022-11-24T00:41:18.563Z,83.28
2022-11-24T00:42:18.366Z,83.27
2022-11-24T00:43:18.327Z,83.12
2022-11-24T00:44:18.041Z,83.19
2022-11-24T00:45:20.904Z,83.23
2022-11-24T00:46:19.302Z,83.26
2022-11-24T00:47:18.583Z,83.16
2022-11-24T00:48:18.292Z,83.27
2022-11-24T00:49:18.284Z,83.37
2022-11-24T00:50:18.416Z,83.38
2022-11-24T00:51:18.133Z,83.36
2022-11-24T00:52:18.213Z,83.43
2022-11-24T00:53:18.180Z,83.45
2022-11-24T00:54:18.052Z,83.45
2022-11-24T00:55:17.872Z,83.39
2022-11-24T00:56:18.568Z,83.39
2022-11-24T00:57:18.561Z,83.43
2022-11-24T00:58:18.264Z,83.46
2022-11-24T00:59:18.142Z,83.51
2022-11-24T01:00:32.923Z,83.52
2022-11-24T01:01:20.783Z,83.50
2022-11-24T01:02:33.072Z,83.44
2022-11-24T01:03:18.106Z,83.53
2022-11-24T01:04:17.997Z,83.60
2022-11-24T01:05:17.997Z,83.65
2022-11-24T01:06:17.765Z,83.68
2022-11-24T01:07:18.441Z,83.75
2022-11-24T01:08:18.191Z,83.80
2022-11-24T01:09:18.024Z,83.88
2022-11-24T01:10:18.353Z,83.82
2022-11-24T01:11:18.273Z,83.84
2022-11-24T01:12:18.513Z,83.89
2022-11-24T01:13:18.541Z,83.91
2022-11-24T01:14:18.418Z,83.78
2022-11-24T01:15:18.108Z,83.75
2022-11-24T01:16:18.225Z,83.74
2022-11-24T01:17:18.124Z,83.83
2022-11-24T01:18:17.884Z,83.91
2022-11-24T01:19:18.871Z,84.01
2022-11-24T01:20:18.857Z,84.12
2022-11-24T01:21:18.451Z,84.18
2022-11-24T01:22:18.059Z,84.12
2022-11-24T01:23:17.930Z,84.11
2022-11-24T01:24:18.711Z,84.11
2022-11-24T01:25:18.556Z,84.12
2022-11-24T01:26:18.155Z,84.10
2022-11-24T01:27:17.755Z,83.97
2022-11-24T01:28:18.303Z,84.10
2022-11-24T01:29:17.976Z,84.23
2022-11-24T01:30:19.039Z,84.27
2022-11-24T01:31:18.039Z,84.28
2022-11-24T01:32:17.712Z,84.30
2022-11-24T01:33:18.504Z,84.37
2022-11-24T01:34:18.116Z,84.39
2022-11-24T01:35:18.293Z,84.38
2022-11-24T01:36:17.960Z,84.33
2022-11-24T01:37:18.673Z,84.26
2022-11-24T01:38:18.588Z,84.22
2022-11-24T01:39:18.208Z,84.25
2022-11-24T01:40:18.324Z,84.29
2022-11-24T01:41:18.216Z,84.31
2022-11-24T01:42:17.883Z,84.27
2022-11-24T01:43:18.404Z,84.29
2022-11-24T01:44:18.062Z,84.32
2022-11-24T01:45:17.894Z,84.37
2022-11-24T01:46:18.871Z,84.49
2022-11-24T01:47:18.948Z,84.44
2022-11-24T01:48:21.132Z,84.24
2022-11-24T01:49:17.923Z,84.10
2022-11-24T01:50:18.848Z,84.04
2022-11-24T01:51:18.303Z,84.07
2022-11-24T01:52:17.933Z,84.04
2022-11-24T01:53:18.575Z,83.95
2022-11-24T01:54:18.004Z,83.90
2022-11-24T01:55:17.677Z,83.86
2022-11-24T01:56:18.119Z,83.81
2022-11-24T01:57:17.635Z,83.77
2022-11-24T01:58:18.077Z,83.75
2022-11-24T01:59:18.114Z,83.70
2022-11-24T02:00:18.762Z,83.59
2022-11-24T02:01:18.538Z,83.73
2022-11-24T02:02:18.338Z,83.93
2022-11-24T02:03:18.169Z,84.11
2022-11-24T02:04:17.525Z,84.29
2022-11-24T02:05:18.499Z,84.42
2022-11-24T02:06:17.958Z,84.45
2022-11-24T02:07:18.591Z,84.40
2022-11-24T02:08:18.238Z,84.31
2022-11-24T02:09:17.615Z,84.37
2022-11-24T02:10:18.284Z,84.43
2022-11-24T02:11:17.747Z,84.46
2022-11-24T02:12:18.481Z,84.42
2022-11-24T02:13:17.833Z,84.37
2022-11-24T02:14:18.226Z,84.34
2022-11-24T02:15:18.036Z,84.29
2022-11-24T02:16:17.884Z,84.12
2022-11-24T02:17:18.599Z,83.94
2022-11-24T02:18:17.999Z,83.87
2022-11-24T02:19:17.456Z,83.80
2022-11-24T02:20:18.141Z,83.70
2022-11-24T02:21:18.010Z,83.69
2022-11-24T02:22:17.501Z,83.83
2022-11-24T02:23:18.169Z,83.93
2022-11-24T02:24:17.882Z,83.90
2022-11-24T02:25:18.603Z,83.76
2022-11-24T02:26:18.267Z,83.77
2022-11-24T02:27:17.891Z,83.78
2022-11-24T02:28:18.289Z,83.87
2022-11-24T02:29:17.804Z,84.02
2022-11-24T02:30:18.665Z,84.09
2022-11-24T02:31:18.556Z,83.94
2022-11-24T02:32:17.990Z,83.86
2022-11-24T02:33:17.416Z,83.87
2022-11-24T02:34:17.759Z,83.81
2022-11-24T02:35:18.415Z,83.78
2022-11-24T02:36:17.913Z,83.92
2022-11-24T02:37:17.565Z,84.00
2022-11-24T02:38:18.014Z,84.00
2022-11-24T02:39:17.510Z,84.01
2022-11-24T02:40:18.255Z,84.04
2022-11-24T02:41:17.460Z,84.06
2022-11-24T02:42:17.928Z,84.07
2022-11-24T02:43:18.251Z,84.09
2022-11-24T02:44:17.600Z,84.19
2022-11-24T02:45:18.187Z,84.28
2022-11-24T02:46:17.836Z,84.35
2022-11-24T02:47:18.068Z,84.34
2022-11-24T02:48:17.308Z,84.38
2022-11-24T02:49:17.771Z,84.41
2022-11-24T02:50:18.365Z,84.45
2022-11-24T02:51:17.627Z,84.43
2022-11-24T02:52:18.265Z,84.33
2022-11-24T02:53:17.761Z,84.24
2022-11-24T02:54:18.240Z,84.19
2022-11-24T02:55:17.784Z,84.25
2022-11-24T02:56:18.383Z,84.30
2022-11-24T02:57:17.777Z,84.28
2022-11-24T02:58:18.474Z,84.19
2022-11-24T02:59:18.066Z,84.18
2022-11-24T03:00:18.394Z,84.29
2022-11-24T03:01:23.191Z,84.38
2022-11-24T03:02:17.974Z,84.36
2022-11-24T03:03:17.975Z,84.43
2022-11-24T03:04:18.236Z,84.43
2022-11-24T03:05:18.241Z,84.40
2022-11-24T03:06:17.698Z,84.38
2022-11-24T03:07:18.404Z,84.27
2022-11-24T03:08:17.978Z,84.20
2022-11-24T03:09:17.893Z,84.20
2022-11-24T03:10:18.621Z,84.23
2022-11-24T03:11:18.155Z,84.13
2022-11-24T03:12:17.729Z,84.03
2022-11-24T03:13:18.203Z,84.12
2022-11-24T03:14:17.761Z,84.13
2022-11-24T03:15:18.451Z,84.16
2022-11-24T03:16:17.853Z,84.13
2022-11-24T03:17:18.360Z,84.17
2022-11-24T03:18:17.802Z,84.14
2022-11-24T03:19:17.629Z,84.16
2022-11-24T03:20:18.105Z,84.15
2022-11-24T03:21:17.416Z,84.14
2022-11-24T03:22:17.655Z,84.10
2022-11-24T03:23:18.127Z,84.11
2022-11-24T03:24:17.821Z,84.01
2022-11-24T03:25:18.257Z,83.96
2022-11-24T03:26:17.792Z,83.89
2022-11-24T03:27:18.178Z,83.87
2022-11-24T03:28:17.458Z,83.86
2022-11-24T03:29:18.051Z,83.89
2022-11-24T03:30:17.940Z,83.86
2022-11-24T03:31:18.506Z,83.79
2022-11-24T03:32:18.111Z,83.80
2022-11-24T03:33:17.315Z,83.81
2022-11-24T03:34:17.677Z,83.90
2022-11-24T03:35:18.150Z,83.95
2022-11-24T03:36:17.713Z,83.79
2022-11-24T03:37:18.236Z,83.80
2022-11-24T03:38:17.998Z,83.88
2022-11-24T03:39:17.481Z,83.92
2022-11-24T03:40:18.187Z,83.89
2022-11-24T03:41:17.908Z,83.83
2022-11-24T03:42:18.235Z,83.75
2022-11-24T03:43:17.959Z,83.70
2022-11-24T03:44:18.079Z,83.55
2022-11-24T03:45:50.973Z,83.44
2022-11-24T03:46:18.593Z,83.44
2022-11-24T03:47:18.077Z,83.49
2022-11-24T03:48:17.914Z,83.45
2022-11-24T03:49:18.438Z,83.43
2022-11-24T03:50:17.931Z,83.28
2022-11-24T03:51:18.274Z,83.08
2022-11-24T03:52:17.658Z,83.04
2022-11-24T03:53:18.265Z,83.15
2022-11-24T03:54:17.767Z,83.19
2022-11-24T03:55:18.454Z,83.14
2022-11-24T03:56:17.942Z,83.05
2022-11-24T03:57:18.523Z,83.05
2022-11-24T03:58:18.059Z,82.96
2022-11-24T03:59:17.710Z,82.99
2022-11-24T04:00:19.325Z,83.03
2022-11-24T04:01:17.977Z,83.09
2022-11-24T04:02:18.036Z,83.08
2022-11-24T04:03:17.969Z,82.97
2022-11-24T04:04:18.238Z,82.95
2022-11-24T04:05:18.102Z,82.96
2022-11-24T04:06:17.360Z,82.91
2022-11-24T04:07:18.120Z,82.89
2022-11-24T04:08:17.617Z,82.86
2022-11-24T04:09:18.421Z,82.85
2022-11-24T04:10:18.327Z,82.87
2022-11-24T04:11:17.990Z,82.91
2022-11-24T04:12:17.452Z,83.03
2022-11-24T04:13:18.037Z,83.11
2022-11-24T04:14:20.351Z,83.22
2022-11-24T04:15:17.977Z,83.29
2022-11-24T04:16:18.387Z,83.33
2022-11-24T04:17:18.173Z,83.36
2022-11-24T04:18:17.875Z,83.32
2022-11-24T04:19:17.651Z,83.31
2022-11-24T04:20:18.534Z,83.38
2022-11-24T04:21:18.492Z,83.45
2022-11-24T04:22:17.972Z,83.50
2022-11-24T04:23:18.339Z,83.54
2022-11-24T04:24:17.748Z,83.53
2022-11-24T04:25:18.737Z,83.57
2022-11-24T04:26:17.988Z,83.58
2022-11-24T04:27:17.530Z,83.56
2022-11-24T04:28:18.011Z,83.62
2022-11-24T04:29:17.777Z,83.65
2022-11-24T04:30:19.035Z,83.69
2022-11-24T04:31:17.774Z,83.71
2022-11-24T04:32:18.322Z,83.69
2022-11-24T04:33:17.936Z,83.68
2022-11-24T04:34:18.238Z,83.66
2022-11-24T04:35:17.910Z,83.69
2022-11-24T04:36:18.280Z,83.73
2022-11-24T04:37:18.124Z,83.81
2022-11-24T04:39:24.377Z,83.85
2022-11-24T04:39:32.252Z,83.84
2022-11-24T04:40:17.819Z,83.84
2022-11-24T04:41:18.653Z,83.88
2022-11-24T04:42:18.263Z,83.88
2022-11-24T04:43:17.871Z,83.87
2022-11-24T04:44:18.345Z,83.81
2022-11-24T04:45:18.255Z,83.74
2022-11-24T04:46:17.832Z,83.76
2022-11-24T04:47:18.574Z,83.72
2022-11-24T04:48:18.076Z,83.64
2022-11-24T04:49:17.728Z,83.61
2022-11-24T04:50:18.258Z,83.64
2022-11-24T04:51:17.686Z,83.60
2022-11-24T04:52:18.104Z,83.59
2022-11-24T04:53:17.760Z,83.51
2022-11-24T04:54:18.371Z,83.38
2022-11-24T04:55:18.391Z,83.23
2022-11-24T04:56:17.520Z,83.14
2022-11-24T04:57:17.583Z,83.09
2022-11-24T04:58:17.959Z,83.06
2022-11-24T04:59:18.526Z,83.05
2022-11-24T05:00:19.060Z,82.97
2022-11-24T05:01:17.749Z,82.94
2022-11-24T05:02:18.733Z,82.87
2022-11-24T05:03:18.250Z,82.78
2022-11-24T05:04:17.951Z,82.76
2022-11-24T05:05:17.713Z,82.72
2022-11-24T05:06:18.257Z,82.74
2022-11-24T05:07:24.652Z,82.76
2022-11-24T05:09:18.653Z,82.72
2022-11-24T05:10:18.682Z,82.75
2022-11-24T05:11:18.394Z,82.80
2022-11-24T05:12:17.917Z,82.83
2022-11-24T05:13:18.396Z,82.79
2022-11-24T05:14:18.095Z,82.74
2022-11-24T05:15:17.742Z,82.67
2022-11-24T05:16:18.629Z,82.63
2022-11-24T05:17:18.190Z,82.64
2022-11-24T05:18:17.943Z,82.66
2022-11-24T05:19:18.837Z,82.69
2022-11-24T05:20:18.606Z,82.66
2022-11-24T05:21:17.855Z,82.61
2022-11-24T05:22:18.459Z,82.58
2022-11-24T05:23:18.010Z,82.55
2022-11-24T05:24:17.365Z,82.48
2022-11-24T05:25:18.500Z,82.50
2022-11-24T05:26:31.806Z,82.45
2022-11-24T05:27:18.335Z,82.45
2022-11-24T05:28:17.987Z,82.44
2022-11-24T05:29:18.594Z,82.45
2022-11-24T05:30:18.245Z,82.48
2022-11-24T05:31:18.146Z,82.69
2022-11-24T05:32:18.101Z,82.83
2022-11-24T05:33:17.591Z,82.97
2022-11-24T05:34:18.422Z,83.02
2022-11-24T05:35:18.242Z,83.26
2022-11-24T05:36:17.880Z,83.42
2022-11-24T05:37:18.306Z,83.63
2022-11-24T05:38:17.765Z,83.86
2022-11-24T05:39:18.387Z,83.98
2022-11-24T05:40:18.218Z,83.95
2022-11-24T05:41:18.233Z,83.97
2022-11-24T05:42:17.960Z,83.90
2022-11-24T05:43:18.528Z,84.08
2022-11-24T05:44:18.097Z,84.40
2022-11-24T05:45:18.078Z,84.70
2022-11-24T05:46:18.047Z,84.96
2022-11-24T05:47:17.933Z,85.14
2022-11-24T05:48:18.175Z,85.20
2022-11-24T05:49:17.986Z,85.14
2022-11-24T05:50:17.486Z,85.08
2022-11-24T05:51:18.259Z,85.04
2022-11-24T05:52:17.738Z,84.94
2022-11-24T05:53:18.279Z,84.89
2022-11-24T05:54:17.788Z,84.84
2022-11-24T05:55:18.582Z,84.60
2022-11-24T05:56:18.297Z,84.62
2022-11-24T05:57:17.954Z,84.61
2022-11-24T05:58:18.721Z,84.60
2022-11-24T05:59:18.322Z,84.74
2022-11-24T06:00:18.779Z,84.88
2022-11-24T06:01:18.283Z,84.80
2022-11-24T06:02:18.225Z,84.73
2022-11-24T06:03:17.991Z,84.73
2022-11-24T06:04:17.316Z,84.73
2022-11-24T06:05:18.252Z,84.68
2022-11-24T06:06:18.010Z,84.64
2022-11-24T06:07:17.948Z,84.80
2022-11-24T06:08:18.445Z,84.86
2022-11-24T06:09:18.190Z,84.90
2022-11-24T06:10:18.048Z,85.00
2022-11-24T06:11:18.155Z,85.02
2022-11-24T06:12:17.774Z,84.98
2022-11-24T06:13:18.764Z,84.94
2022-11-24T06:14:18.623Z,84.86
2022-11-24T06:15:18.519Z,84.68
2022-11-24T06:16:18.399Z,84.73
2022-11-24T06:17:18.494Z,84.81
2022-11-24T06:18:17.829Z,84.95
2022-11-24T06:19:18.781Z,85.04
2022-11-24T06:20:18.644Z,85.10
2022-11-24T06:21:18.822Z,85.13
2022-11-24T06:22:18.158Z,85.11
2022-11-24T06:23:17.766Z,85.25
2022-11-24T06:24:18.385Z,85.38
2022-11-24T06:25:18.354Z,85.40
2022-11-24T06:26:18.495Z,85.51
2022-11-24T06:27:18.545Z,85.61
2022-11-24T06:28:18.221Z,85.61
2022-11-24T06:29:17.847Z,85.71
2022-11-24T06:30:18.500Z,85.79
2022-11-24T06:31:18.488Z,85.75
2022-11-24T06:32:17.987Z,85.81
2022-11-24T06:33:17.595Z,85.77
2022-11-24T06:34:18.158Z,85.74
2022-11-24T06:35:18.316Z,85.77
2022-11-24T06:36:17.962Z,85.83
2022-11-24T06:37:18.681Z,85.78
2022-11-24T06:38:24.127Z,85.75
2022-11-24T06:39:18.247Z,85.78
2022-11-24T06:40:18.074Z,85.94
2022-11-24T06:41:17.653Z,86.02
2022-11-24T06:42:18.176Z,86.10
2022-11-24T06:43:17.783Z,86.13
2022-11-24T06:44:18.498Z,86.16
2022-11-24T06:45:18.291Z,86.05
2022-11-24T06:46:18.120Z,85.99
2022-11-24T06:47:17.855Z,85.87
2022-11-24T06:48:18.614Z,85.83
2022-11-24T06:49:18.363Z,85.84
2022-11-24T06:50:18.226Z,85.83
2022-11-24T06:51:17.768Z,85.98
2022-11-24T06:52:18.528Z,86.10
2022-11-24T06:53:18.146Z,86.26
2022-11-24T06:54:17.791Z,86.26
2022-11-24T06:55:18.528Z,86.31
2022-11-24T06:57:17.592Z,86.53
2022-11-24T06:58:18.140Z,86.64
2022-11-24T06:59:17.851Z,86.77
2022-11-24T07:00:19.332Z,86.97
2022-11-24T07:01:18.012Z,86.96
2022-11-24T07:02:17.788Z,87.02
2022-11-24T07:03:18.385Z,87.03
2022-11-24T07:04:18.070Z,87.02
2022-11-24T07:05:17.933Z,87.01
2022-11-24T07:06:17.751Z,87.01
2022-11-24T07:07:18.627Z,86.93
2022-11-24T07:09:18.299Z,86.89
2022-11-24T07:10:18.359Z,86.97
2022-11-24T07:11:17.964Z,87.02
2022-11-24T07:12:18.751Z,87.00
2022-11-24T07:13:18.872Z,86.81
2022-11-24T07:14:18.752Z,86.73
2022-11-24T07:15:18.711Z,86.63
2022-11-24T07:16:18.654Z,86.61
2022-11-24T07:17:18.226Z,86.56
2022-11-24T07:18:18.373Z,86.5
2022-11-24T07:19:24.404Z,86.48
2022-11-24T07:20:18.892Z,86.42
2022-11-24T07:21:18.547Z,86.40
2022-11-24T07:22:18.332Z,86.48
2022-11-24T07:23:18.019Z,86.57
2022-11-24T07:24:17.706Z,86.65
2022-11-24T07:25:18.900Z,86.59
2022-11-24T07:26:18.535Z,86.52
2022-11-24T07:27:18.398Z,86.53
2022-11-24T07:28:17.983Z,86.54
2022-11-24T07:29:18.715Z,86.46
2022-11-24T07:30:18.564Z,86.52
2022-11-24T07:31:18.220Z,86.48
2022-11-24T07:32:18.401Z,86.46
2022-11-24T07:33:18.169Z,86.43
2022-11-24T07:34:18.010Z,86.42
2022-11-24T07:35:18.231Z,86.28
2022-11-24T07:36:18.402Z,86.35
2022-11-24T07:37:18.581Z,86.41
2022-11-24T07:38:18.595Z,86.38
2022-11-24T07:39:18.615Z,86.31
2022-11-24T07:40:18.647Z,86.24
2022-11-24T07:41:18.412Z,86.20
2022-11-24T07:42:17.987Z,86.16
2022-11-24T07:43:23.613Z,86.09
2022-11-24T07:44:18.606Z,86.09
2022-11-24T07:45:18.616Z,86.11
2022-11-24T07:46:18.823Z,86.17
2022-11-24T07:47:18.792Z,86.32
2022-11-24T07:48:18.790Z,86.42
2022-11-24T07:49:18.380Z,86.27
2022-11-24T07:50:18.223Z,86.23
2022-11-24T07:51:18.195Z,86.34
2022-11-24T07:52:18.066Z,86.44
2022-11-24T07:53:17.655Z,86.41
2022-11-24T07:54:16.893Z,86.18
2022-11-24T07:55:18.964Z,86.29
2022-11-24T07:56:18.680Z,86.29
2022-11-24T07:57:18.697Z,86.35
2022-11-24T07:58:18.298Z,86.40
2022-11-24T07:59:18.208Z,86.37
2022-11-24T08:00:18.633Z,86.18
2022-11-24T08:01:18.927Z,86.23
2022-11-24T08:02:18.081Z,86.33
2022-11-24T08:03:32.282Z,86.39
2022-11-24T08:04:18.462Z,86.44
2022-11-24T08:05:49.169Z,86.43
2022-11-24T08:06:39.730Z,86.56
2022-11-24T08:07:18.005Z,86.56
2022-11-24T08:08:18.357Z,86.56
2022-11-24T08:09:18.200Z,86.54
2022-11-24T08:10:18.224Z,86.64
2022-11-24T08:11:18.277Z,86.60
2022-11-24T08:12:18.507Z,86.48
2022-11-24T08:13:18.639Z,86.41
2022-11-24T08:14:18.629Z,86.41
2022-11-24T08:15:18.655Z,86.50
2022-11-24T08:16:18.645Z,86.58
2022-11-24T08:17:19.171Z,86.63
2022-11-24T08:18:18.200Z,86.59
2022-11-24T08:19:37.245Z,86.54
2022-11-24T08:20:18.447Z,86.61
2022-11-24T08:21:18.180Z,86.67
2022-11-24T08:22:17.845Z,86.73
2022-11-24T08:23:18.866Z,86.72
2022-11-24T08:24:18.827Z,86.65
2022-11-24T08:25:18.952Z,86.69
2022-11-24T08:26:19.422Z,86.77
2022-11-24T08:27:18.468Z,86.83
2022-11-24T08:28:18.607Z,86.76
2022-11-24T08:29:18.605Z,86.80
2022-11-24T08:30:18.905Z,86.71
2022-11-24T08:31:19.086Z,86.52
2022-11-24T08:32:22.155Z,86.35
2022-11-24T08:33:18.265Z,86.24
2022-11-24T08:34:18.152Z,86.03
2022-11-24T08:35:21.396Z,85.82
2022-11-24T08:36:18.444Z,85.81
2022-11-24T08:37:18.660Z,85.90
2022-11-24T08:38:18.436Z,85.98
2022-11-24T08:39:18.441Z,86.15
2022-11-24T08:40:18.699Z,86.12
2022-11-24T08:41:18.639Z,86.04
2022-11-24T08:42:18.454Z,85.93
2022-11-24T08:43:18.838Z,85.77
2022-11-24T08:44:18.879Z,85.69
2022-11-24T08:45:30.651Z,85.56
2022-11-24T08:46:19.420Z,85.56
2022-11-24T08:47:18.351Z,85.31
2022-11-24T08:48:18.284Z,85.25
2022-11-24T08:49:18.148Z,85.17
2022-11-24T08:50:18.139Z,85.11
2022-11-24T08:51:18.186Z,85.20
2022-11-24T08:52:18.023Z,85.19
2022-11-24T08:53:18.147Z,84.97
2022-11-24T08:54:18.045Z,84.80
2022-11-24T08:55:18.289Z,84.71
2022-11-24T08:56:18.044Z,84.88
2022-11-24T08:57:21.824Z,85.05
2022-11-24T08:58:17.934Z,84.96
2022-11-24T08:59:18.888Z,84.76
2022-11-24T09:00:19.585Z,84.62
2022-11-24T09:01:18.759Z,84.57
2022-11-24T09:02:18.818Z,84.66
2022-11-24T09:03:18.731Z,84.66
2022-11-24T09:04:18.536Z,84.5
2022-11-24T09:05:57.345Z,84.02
2022-11-24T09:06:18.182Z,84.02
2022-11-24T09:07:18.137Z,83.69
2022-11-24T09:08:18.201Z,83.51
2022-11-24T09:09:18.037Z,83.39
2022-11-24T09:10:18.132Z,83.20
2022-11-24T09:11:18.016Z,83.20
2022-11-24T09:12:21.616Z,83.30
2022-11-24T09:13:18.415Z,83.27
2022-11-24T09:14:18.471Z,83.17
2022-11-24T09:15:18.744Z,82.87
2022-11-24T09:16:18.831Z,82.91
2022-11-24T09:17:18.663Z,82.98
2022-11-24T09:18:18.342Z,83.03
2022-11-24T09:19:18.418Z,82.97
2022-11-24T09:20:18.601Z,82.97
2022-11-24T09:21:18.608Z,82.93
2022-11-24T09:22:18.454Z,82.84
2022-11-24T09:23:18.384Z,82.32
2022-11-24T09:24:18.145Z,81.90
2022-11-24T09:25:18.016Z,81.83
2022-11-24T09:26:18.048Z,81.94
2022-11-24T09:27:17.962Z,81.95
2022-11-24T09:28:18.897Z,81.98
2022-11-24T09:29:18.628Z,82.05
2022-11-24T09:30:18.837Z,82.01
2022-11-24T09:31:19.114Z,81.85
2022-11-24T09:32:18.231Z,81.83
2022-11-24T09:33:18.114Z,81.34
2022-11-24T09:34:18.366Z,81.01
2022-11-24T09:35:18.630Z,80.94
2022-11-24T09:36:17.281Z,80.86
2022-11-24T09:37:18.058Z,80.88
2022-11-24T09:38:17.841Z,80.99
2022-11-24T09:39:18.912Z,80.87
2022-11-24T09:40:19.030Z,80.86
2022-11-24T09:41:17.967Z,80.83
2022-11-24T09:42:19.038Z,80.61
2022-11-24T09:43:18.210Z,80.27
2022-11-24T09:44:18.296Z,80.15
2022-11-24T09:45:30.401Z,80.55
2022-11-24T09:46:18.737Z,80.85
2022-11-24T09:47:18.835Z,80.83
2022-11-24T09:48:18.899Z,80.55
2022-11-24T09:49:18.638Z,80.55
2022-11-24T09:50:18.694Z,80.57
2022-11-24T09:51:18.981Z,80.36
2022-11-24T09:52:19.279Z,80.00
2022-11-24T09:53:18.697Z,79.98
2022-11-24T09:54:18.987Z,80.03
2022-11-24T09:55:17.962Z,80.16
2022-11-24T09:56:18.822Z,80.20
2022-11-24T09:57:18.913Z,80.37
2022-11-24T09:58:18.787Z,80.30
2022-11-24T09:59:18.803Z,80.24
2022-11-24T10:00:19.819Z,80.19
2022-11-24T10:01:19.123Z,80.62
2022-11-24T10:02:22.944Z,81.21
2022-11-24T10:03:19.058Z,80.82
2022-11-24T10:04:18.169Z,80.94
2022-11-24T10:05:18.352Z,80.91
2022-11-24T10:06:18.297Z,80.70
2022-11-24T10:07:18.331Z,80.65
2022-11-24T10:09:19.143Z,80.88
2022-11-24T10:10:24.325Z,80.83
2022-11-24T10:11:19.097Z,80.61
2022-11-24T10:12:23.502Z,80.90
2022-11-24T10:13:19.095Z,80.73
2022-11-24T10:14:18.532Z,80.22
2022-11-24T10:15:19.258Z,80.20
2022-11-24T10:16:32.365Z,80.30
2022-11-24T10:17:18.798Z,80.30
2022-11-24T10:19:18.950Z,80.23
2022-11-24T10:20:19.821Z,80.17
2022-11-24T10:21:19.276Z,80.03
2022-11-24T10:22:18.939Z,79.76
2022-11-24T10:23:19.522Z,79.75
2022-11-24T10:24:18.646Z,79.53
2022-11-24T10:25:19.144Z,79.39
2022-11-24T10:26:18.582Z,79.36
2022-11-24T10:27:20.046Z,79.33
2022-11-24T10:28:19.358Z,79.38
2022-11-24T10:29:19.072Z,79.31
2022-11-24T10:30:19.196Z,79.30
2022-11-24T10:31:19.096Z,79.27
2022-11-24T10:32:18.651Z,79.24
2022-11-24T10:33:18.875Z,79.05
2022-11-24T10:34:19.065Z,79.11
2022-11-24T10:35:18.758Z,79.02
2022-11-24T10:36:19.243Z,79.01
2022-11-24T10:37:18.852Z,78.77
2022-11-24T10:38:19.252Z,78.39
2022-11-24T10:39:18.953Z,78.13
2022-11-24T10:40:57.387Z,77.98
2022-11-24T10:41:19.631Z,77.98
2022-11-24T10:42:19.238Z,78.09
2022-11-24T10:43:18.890Z,78.24
2022-11-24T10:44:19.024Z,78.49
2022-11-24T10:45:18.264Z,78.43
2022-11-24T10:46:19.125Z,78.31
2022-11-24T10:47:18.703Z,78.26
2022-11-24T10:48:19.347Z,78.25
2022-11-24T10:49:19.150Z,78.15
2022-11-24T10:50:18.844Z,78.31
2022-11-24T10:51:19.182Z,78.40
2022-11-24T10:52:18.198Z,78.25
2022-11-24T10:53:18.056Z,78.10
2022-11-24T10:54:18.271Z,78.16
2022-11-24T10:55:21.556Z,77.86
2022-11-24T10:56:19.192Z,77.82
2022-11-24T10:57:18.514Z,77.95
2022-11-24T10:58:18.638Z,78.01
2022-11-24T10:59:19.263Z,78.11
2022-11-24T11:00:47.393Z,78.13
2022-11-24T11:01:19.289Z,78.13
2022-11-24T11:02:46.384Z,78.16
2022-11-24T11:03:18.604Z,78.16
2022-11-24T11:04:18.909Z,78.15
2022-11-24T11:05:19.536Z,77.94
2022-11-24T11:06:18.919Z,77.73
2022-11-24T11:07:19.471Z,78.05
2022-11-24T11:08:19.365Z,77.82
2022-11-24T11:09:18.731Z,77.54
2022-11-24T11:10:19.299Z,77.40
2022-11-24T11:11:18.927Z,77.37
2022-11-24T11:12:49.915Z,77.60
2022-11-24T11:13:19.137Z,77.60
2022-11-24T11:14:18.484Z,77.31
2022-11-24T11:15:19.520Z,77.09
2022-11-24T11:16:19.185Z,76.86
2022-11-24T11:17:18.816Z,76.78
2022-11-24T11:18:19.038Z,76.89
2022-11-24T11:20:00.309Z,77.07
2022-11-24T11:20:18.655Z,77.07
2022-11-24T11:21:19.138Z,77.14
2022-11-24T11:22:18.820Z,77.01
2022-11-24T11:23:19.438Z,76.70
2022-11-24T11:24:18.632Z,76.63
2022-11-24T11:25:19.352Z,76.32
2022-11-24T11:26:18.619Z,76.47
2022-11-24T11:27:18.431Z,76.44
2022-11-24T11:31:19.114Z,76.43
2022-11-24T11:31:24.759Z,76.30
2022-11-24T11:34:06.201Z,76.32
2022-11-24T11:34:30.653Z,76.46
2022-11-24T11:35:19.693Z,76.46
2022-11-24T11:36:19.441Z,76.43
2022-11-24T11:37:18.933Z,76.23
2022-11-24T11:38:19.379Z,76.13
2022-11-24T11:39:18.615Z,75.60
2022-11-24T11:40:20.508Z,75.52
2022-11-24T11:41:19.001Z,75.46
2022-11-24T11:43:01.434Z,75.41
2022-11-24T11:43:19.439Z,75.41
2022-11-24T11:44:18.585Z,75.33
2022-11-24T11:45:19.251Z,75.38
2022-11-24T11:46:19.205Z,75.34
2022-11-24T11:47:18.603Z,75.34
2022-11-24T11:48:18.719Z,75.41
2022-11-24T11:49:19.116Z,75.33
2022-11-24T11:50:18.646Z,75.27
2022-11-24T11:51:30.921Z,75.48
2022-11-24T11:52:18.424Z,75.48
2022-11-24T11:53:18.966Z,75.54
2022-11-24T11:54:19.410Z,75.55
2022-11-24T11:55:18.773Z,75.52
2022-11-24T11:56:19.549Z,75.56
2022-11-24T11:57:18.866Z,75.52
2022-11-24T11:58:19.068Z,75.39
2022-11-24T11:59:18.465Z,75.33
2022-11-24T12:00:19.432Z,75.34
2022-11-24T12:01:18.999Z,75.38
2022-11-24T12:02:18.456Z,75.45
2022-11-24T12:03:19.109Z,75.43
2022-11-24T12:04:18.760Z,75.41
2022-11-24T12:05:19.126Z,75.10
2022-11-24T12:06:18.029Z,75.04
2022-11-24T12:07:18.232Z,75.18
2022-11-24T12:09:27.971Z,75.36
2022-11-24T12:10:19.488Z,75.36
2022-11-24T12:11:18.548Z,75.29
2022-11-24T12:12:18.367Z,75.21
2022-11-24T12:13:18.062Z,75.22
2022-11-24T12:14:17.889Z,75.24
2022-11-24T12:15:19.280Z,75.24
2022-11-24T12:16:18.398Z,75.17
2022-11-24T12:17:18.576Z,75.13
2022-11-24T12:18:57.749Z,75.06
2022-11-24T12:19:17.971Z,75.06
2022-11-24T12:20:18.931Z,74.88
2022-11-24T12:21:24.669Z,74.81
2022-11-24T12:22:18.163Z,74.81
2022-11-24T12:23:18.203Z,74.73
2022-11-24T12:24:18.663Z,74.66
2022-11-24T12:25:23.586Z,74.57
2022-11-24T12:26:18.855Z,74.57
2022-11-24T12:27:30.062Z,74.51
2022-11-24T12:28:18.206Z,74.51
2022-11-24T12:29:18.468Z,74.51
2022-11-24T12:30:19.012Z,74.69
2022-11-24T12:31:19.203Z,74.79
2022-11-24T12:32:18.575Z,75.45
2022-11-24T12:33:19.136Z,75.58
2022-11-24T12:34:18.047Z,76.16
2022-11-24T12:35:18.254Z,76.22
2022-11-24T12:36:18.295Z,76.21
2022-11-24T12:37:18.413Z,76.91
2022-11-24T12:38:18.526Z,77.48
2022-11-24T12:39:18.267Z,77.63
2022-11-24T12:40:18.631Z,76.44
2022-11-24T12:41:49.123Z,76.23
2022-11-24T12:42:18.011Z,76.23
2022-11-24T12:43:23.147Z,76.80
2022-11-24T12:44:18.195Z,76.73
2022-11-24T12:45:18.360Z,75.88
2022-11-24T12:47:32.632Z,76.29
2022-11-24T12:48:18.549Z,76.29
2022-11-24T12:49:18.526Z,75.41
2022-11-24T12:50:18.712Z,75.25
2022-11-24T12:51:18.535Z,74.68
2022-11-24T12:52:18.771Z,74.72
2022-11-24T12:53:18.498Z,74.51
2022-11-24T12:54:18.509Z,74.52
2022-11-24T12:55:18.759Z,74.70
2022-11-24T12:56:19.105Z,74.74
2022-11-24T12:57:18.260Z,74.72
2022-11-24T12:58:18.755Z,74.42
2022-11-24T12:59:37.820Z,73.83
2022-11-24T13:00:20.326Z,73.83
2022-11-24T13:01:31.730Z,73.69
2022-11-24T13:02:19.785Z,73.69
2022-11-24T13:03:33.561Z,73.72